Time;durP1;ratioP1;P1;durP2;ratioP2;P2;SDS_P1;SDS_P2;PMS_P1;PMS_P2;Temp;Humidity;BMP_temperature;BMP_pressure;BME280_temperature;BME280_humidity;BME280_pressure;Samples;Min_cycle;Max_cycle;Signal;HPM_P1;HPM_P2
2023/05/28 00:02:21;;;;;;;9.77;2.25;;;16.20;70.10;;;;;;4972358;28;20420;-77
2023/05/28 00:04:47;;;;;;;8.63;2.80;;;16.10;70.30;;;;;;4971174;28;20034;-77
2023/05/28 00:07:13;;;;;;;7.68;2.35;;;16.10;70.50;;;;;;4972278;28;20070;-76
2023/05/28 00:09:40;;;;;;;12.02;2.55;;;16.10;70.50;;;;;;4970985;28;20045;-77
2023/05/28 00:12:07;;;;;;;8.02;2.35;;;16.10;70.80;;;;;;4972426;28;20518;-77
2023/05/28 00:14:33;;;;;;;8.98;2.50;;;16.10;71.10;;;;;;4972500;28;20026;-77
2023/05/28 00:16:59;;;;;;;10.98;3.00;;;16.00;71.00;;;;;;4972062;28;20041;-77
2023/05/28 00:19:24;;;;;;;9.70;2.42;;;16.00;71.20;;;;;;4972021;28;20031;-76
2023/05/28 00:21:50;;;;;;;10.38;2.85;;;16.10;71.30;;;;;;4970797;28;20038;-77
2023/05/28 00:24:15;;;;;;;;;;;16.00;71.70;;;;;;4972486;28;20031;-77
2023/05/28 00:26:41;;;;;;;6.97;2.50;;;16.00;72.00;;;;;;4971355;28;19906;-77
2023/05/28 00:29:07;;;;;;;7.20;2.45;;;16.00;71.90;;;;;;4971436;28;20083;-78
2023/05/28 00:31:32;;;;;;;;;;;15.90;72.40;;;;;;4972559;28;20098;-77
2023/05/28 00:33:58;;;;;;;9.85;3.15;;;15.90;73.00;;;;;;4971869;28;20314;-78
2023/05/28 00:36:24;;;;;;;14.52;2.30;;;15.90;73.10;;;;;;4971781;28;20034;-77
2023/05/28 00:38:49;;;;;;;;;;;15.80;73.80;;;;;;4972313;28;20027;-77
2023/05/28 00:41:22;;;;;;;9.35;2.08;;;15.80;74.00;;;;;;4971540;28;19910;-77
2023/05/28 00:43:51;;;;;;;11.05;3.42;;;15.80;74.20;;;;;;4971766;28;20031;-77
2023/05/28 00:46:18;;;;;;;11.85;2.55;;;15.80;74.00;;;;;;4971565;28;20030;-77
2023/05/28 00:48:45;;;;;;;13.88;2.95;;;15.80;73.90;;;;;;4971693;28;20170;-77
2023/05/28 00:51:12;;;;;;;15.13;2.50;;;15.90;74.10;;;;;;4971574;28;20026;-77
2023/05/28 00:53:39;;;;;;;10.45;2.13;;;15.90;74.40;;;;;;4971588;28;20026;-77
2023/05/28 00:56:06;;;;;;;11.15;2.42;;;15.90;74.20;;;;;;4971589;28;20487;-78
2023/05/28 00:58:34;;;;;;;12.80;2.45;;;15.80;74.50;;;;;;4971539;28;20030;-77
2023/05/28 01:01:01;;;;;;;8.65;2.60;;;15.80;75.00;;;;;;4971358;28;20487;-76
2023/05/28 01:03:26;;;;;;;7.60;2.10;;;15.80;75.20;;;;;;4971124;28;20061;-78
2023/05/28 01:05:52;;;;;;;7.40;2.35;;;15.70;75.30;;;;;;4971431;28;20030;-77
2023/05/28 01:08:18;;;;;;;9.57;2.42;;;15.70;75.60;;;;;;4971213;28;20058;-76
2023/05/28 01:10:46;;;;;;;13.27;2.75;;;15.70;76.10;;;;;;4970774;28;20027;-79
2023/05/28 01:13:12;;;;;;;8.32;2.30;;;15.60;76.20;;;;;;4970765;28;20023;-76
2023/05/28 01:15:40;;;;;;;15.18;2.83;;;15.60;77.00;;;;;;4971184;28;20037;-78
2023/05/28 01:18:06;;;;;;;8.75;2.00;;;15.50;76.90;;;;;;4969325;28;20149;-77
2023/05/28 01:20:32;;;;;;;11.13;2.30;;;15.60;77.00;;;;;;4970948;28;20030;-77
2023/05/28 01:23:11;;;;;;;6.88;2.40;;;15.50;77.40;;;;;;4970948;28;20049;-77
2023/05/28 01:25:38;;;;;;;7.35;2.70;;;15.50;78.20;;;;;;4969743;28;20027;-77
2023/05/28 01:28:12;;;;;;;12.50;2.33;;;15.50;78.00;;;;;;4985918;28;20388;-77
2023/05/28 01:30:38;;;;;;;7.88;2.17;;;15.40;78.40;;;;;;4971135;28;20027;-76
2023/05/28 01:33:05;;;;;;;8.27;2.72;;;15.50;78.00;;;;;;4970475;28;20019;-76
2023/05/28 01:35:31;;;;;;;14.07;2.17;;;15.50;78.20;;;;;;4970735;28;20045;-77
2023/05/28 01:37:58;;;;;;;;;;;15.50;78.40;;;;;;4970548;28;20019;-75
2023/05/28 01:40:25;;;;;;;11.88;2.40;;;15.50;78.80;;;;;;4969886;28;20730;-78
2023/05/28 01:42:55;;;;;;;10.70;2.53;;;15.40;79.30;;;;;;4970492;28;20043;-75
2023/05/28 01:45:21;;;;;;;8.88;2.30;;;15.30;79.40;;;;;;4970880;28;20026;-77
2023/05/28 01:47:48;;;;;;;7.60;2.50;;;15.30;79.90;;;;;;4970971;28;20043;-77
2023/05/28 01:50:14;;;;;;;7.60;2.47;;;15.30;80.00;;;;;;4970798;28;20062;-77
2023/05/28 01:52:40;;;;;;;;;;;15.20;80.10;;;;;;4971198;28;20573;-77
2023/05/28 01:55:08;;;;;;;9.45;2.60;;;15.20;80.90;;;;;;4969069;28;19909;-77
2023/05/28 01:57:37;;;;;;;9.63;1.98;;;15.20;81.50;;;;;;4970470;28;20098;-77
2023/05/28 02:00:03;;;;;;;8.40;2.53;;;15.10;81.50;;;;;;4970550;28;20019;-77
2023/05/28 02:02:29;;;;;;;5.82;2.00;;;15.10;82.40;;;;;;4970306;28;20499;-77
2023/05/28 02:04:54;;;;;;;;;;;15.10;82.10;;;;;;4969643;28;20027;-77
2023/05/28 02:07:20;;;;;;;12.43;2.30;;;15.10;82.30;;;;;;4969530;28;20286;-77
2023/05/28 02:09:46;;;;;;;;;;;15.10;81.80;;;;;;4971069;28;20396;-76
2023/05/28 02:12:12;;;;;;;11.10;2.72;;;15.20;81.90;;;;;;4970471;28;19913;-77
2023/05/28 02:14:37;;;;;;;14.25;2.47;;;15.20;82.60;;;;;;4970514;28;20062;-77
2023/05/28 02:17:03;;;;;;;;;;;15.20;81.90;;;;;;4971077;28;20510;-77
2023/05/28 02:19:29;;;;;;;7.20;2.00;;;15.10;82.60;;;;;;4970289;28;20390;-77
2023/05/28 02:21:55;;;;;;;5.97;2.33;;;15.10;82.60;;;;;;4970214;28;20030;-76
2023/05/28 02:24:22;;;;;;;6.72;1.98;;;15.10;82.70;;;;;;4970549;28;20078;-77
2023/05/28 02:26:47;;;;;;;13.55;2.65;;;15.10;83.10;;;;;;4969030;28;20513;-77
2023/05/28 02:29:13;;;;;;;;;;;15.10;83.60;;;;;;4970523;28;20109;-77
2023/05/28 02:31:39;;;;;;;9.50;2.25;;;15.00;84.00;;;;;;4970540;28;19921;-77
2023/05/28 02:34:05;;;;;;;7.65;2.45;;;15.00;84.40;;;;;;4970558;28;20027;-75
2023/05/28 02:36:32;;;;;;;9.40;2.90;;;14.90;85.00;;;;;;4970354;28;20082;-75
2023/05/28 02:38:58;;;;;;;7.20;2.30;;;14.80;85.90;;;;;;4985159;28;20478;-75
2023/05/28 02:41:24;;;;;;;;;;;14.80;86.10;;;;;;4970794;28;20034;-76
2023/05/28 02:43:49;;;;;;;6.50;2.65;;;14.70;87.00;;;;;;4970395;28;19942;-75
2023/05/28 02:46:15;;;;;;;;;;;14.60;87.50;;;;;;4970925;28;20078;-75
2023/05/28 02:48:40;;;;;;;7.13;2.33;;;14.50;89.00;;;;;;4970335;28;19956;-76
2023/05/28 02:51:06;;;;;;;11.43;2.30;;;14.40;89.60;;;;;;4971413;28;20086;-75
2023/05/28 02:53:32;;;;;;;;;;;14.30;90.30;;;;;;4974225;28;20022;-75
2023/05/28 02:55:57;;;;;;;7.82;2.63;;;14.20;91.10;;;;;;4973810;28;19976;-75
2023/05/28 02:58:24;;;;;;;;;;;14.20;91.10;;;;;;4974215;28;20035;-75
2023/05/28 03:00:50;;;;;;;;;;;14.10;91.80;;;;;;4972930;28;20386;-75
2023/05/28 03:03:16;;;;;;;;;;;14.10;92.50;;;;;;4973820;28;19976;-76
2023/05/28 03:05:41;;;;;;;;;;;14.00;92.80;;;;;;4974171;28;19926;-75
2023/05/28 03:08:07;;;;;;;;;;;14.00;93.60;;;;;;4974007;28;20314;-75
2023/05/28 03:10:33;;;;;;;;;;;13.90;93.60;;;;;;4973972;28;19906;-76
2023/05/28 03:12:58;;;;;;;;;;;14.00;94.10;;;;;;4973882;28;20402;-76
2023/05/28 03:15:27;;;;;;;;;;;13.80;94.80;;;;;;4973955;28;19910;-76
2023/05/28 03:17:53;;;;;;;;;;;13.90;95.40;;;;;;4974058;28;19906;-75
2023/05/28 03:20:19;;;;;;;;;;;13.90;95.20;;;;;;4973931;28;19926;-76
2023/05/28 03:22:45;;;;;;;;;;;13.90;95.60;;;;;;4973712;28;20383;-75
2023/05/28 03:25:11;;;;;;;;;;;13.90;95.00;;;;;;4973781;28;20358;-76
2023/05/28 03:27:36;;;;;;;;;;;14.00;95.20;;;;;;4973835;28;19917;-76
2023/05/28 03:30:03;;;;;;;;;;;14.10;95.80;;;;;;4974179;28;20375;-76
2023/05/28 03:32:29;;;;;;;;;;;14.20;95.40;;;;;;4973579;28;19968;-76
2023/05/28 03:34:55;;;;;;;;;;;14.20;95.60;;;;;;4973594;28;20383;-75
2023/05/28 03:37:20;;;;;;;;;;;14.30;96.20;;;;;;4973479;28;19941;-76
2023/05/28 03:39:46;;;;;;;;;;;14.40;95.60;;;;;;4973399;28;19906;-76
2023/05/28 03:42:11;;;;;;;;;;;14.50;96.30;;;;;;4973386;28;20397;-76
2023/05/28 03:44:37;;;;;;;;;;;14.50;95.60;;;;;;4973354;28;19910;-75
2023/05/28 03:47:02;;;;;;;;;;;14.60;95.50;;;;;;4973313;28;19914;-76
2023/05/28 03:49:28;;;;;;;;;;;14.70;95.50;;;;;;4973431;28;19915;-76
2023/05/28 03:51:53;;;;;;;;;;;14.70;95.10;;;;;;4973265;28;19949;-76
2023/05/28 03:54:19;;;;;;;;;;;14.80;94.80;;;;;;4973344;28;19910;-75
2023/05/28 03:56:45;;;;;;;;;;;14.80;94.30;;;;;;4973112;28;20404;-75
2023/05/28 03:59:10;;;;;;;;;;;15.00;93.70;;;;;;4972901;28;19909;-76
2023/05/28 04:01:36;;;;;;;;;;;15.20;93.50;;;;;;4973038;28;19968;-76
2023/05/28 04:04:02;;;;;;;;;;;15.50;92.40;;;;;;4972840;28;19926;-75
2023/05/28 04:06:28;;;;;;;;;;;15.70;92.70;;;;;;4973125;28;20064;-76
2023/05/28 04:08:53;;;;;;;;;;;15.80;92.70;;;;;;4972978;28;19910;-76
2023/05/28 04:11:21;;;;;;;;;;;15.90;92.60;;;;;;4972810;28;20068;-76
2023/05/28 04:13:47;;;;;;;;;;;15.90;91.80;;;;;;4972786;28;19906;-76
2023/05/28 04:16:13;;;;;;;;;;;15.90;91.10;;;;;;4972773;28;20000;-76
2023/05/28 04:18:39;;;;;;;;;;;16.00;91.00;;;;;;4972979;28;20637;-77
2023/05/28 04:21:05;;;;;;;;;;;16.10;91.10;;;;;;4972675;28;19997;-75
2023/05/28 04:23:31;;;;;;;;;;;16.30;90.40;;;;;;4987518;28;19917;-76
2023/05/28 04:25:56;;;;;;;;;;;16.40;89.70;;;;;;4972822;28;20049;-75
2023/05/28 04:28:27;;;;;;;;;;;16.50;89.70;;;;;;4972602;28;19915;-76
2023/05/28 04:31:00;;;;;;;;;;;16.50;89.20;;;;;;4972535;28;19910;-75
2023/05/28 04:33:28;;;;;;;;;;;16.60;87.60;;;;;;4972448;28;19996;-76
2023/05/28 04:35:54;;;;;;;;;;;16.60;88.90;;;;;;4972467;28;19910;-75
2023/05/28 04:38:20;;;;;;;;;;;16.70;88.10;;;;;;4972563;28;19909;-76
2023/05/28 04:40:45;;;;;;;;;;;16.90;86.50;;;;;;4972480;28;19910;-76
2023/05/28 04:43:11;;;;;;;;;;;16.90;85.50;;;;;;4972306;28;19918;-76
2023/05/28 04:45:37;;;;;;;;;;;17.00;85.20;;;;;;4971082;28;19910;-77
2023/05/28 04:48:04;;;;;;;;;;;17.10;85.50;;;;;;4970854;28;20271;-76
2023/05/28 04:50:30;;;;;;;;;;;17.20;85.10;;;;;;4972097;28;19910;-76
2023/05/28 04:52:55;;;;;;;;;;;17.40;85.60;;;;;;4971918;28;19916;-76
2023/05/28 04:55:22;;;;;;;;;;;17.40;84.30;;;;;;4970937;28;19906;-76
2023/05/28 04:57:47;;;;;;;;;;;17.60;84.10;;;;;;4971901;28;19997;-76
2023/05/28 05:00:13;;;;;;;;;;;17.70;84.00;;;;;;4971993;28;20418;-76
2023/05/28 05:02:41;;;;;;;;;;;17.90;84.50;;;;;;4971696;28;19973;-76
2023/05/28 05:05:07;;;;;;;;;;;18.00;81.90;;;;;;4970291;28;19906;-77
2023/05/28 05:07:38;;;;;;;;;;;18.20;80.80;;;;;;4971932;28;20390;-77
2023/05/28 05:10:08;;;;;;;;;;;18.40;81.40;;;;;;4971712;28;20434;-77
2023/05/28 05:12:33;;;;;;;;;;;18.60;81.00;;;;;;4970258;28;19915;-76
2023/05/28 05:14:59;;;;;;;;;;;18.90;78.80;;;;;;4971086;28;19910;-77
2023/05/28 05:17:25;;;;;;;;;;;19.10;78.30;;;;;;4971612;28;19910;-76
2023/05/28 05:19:50;;;;;;;;;;;19.30;76.60;;;;;;4971489;28;19906;-76
2023/05/28 05:22:16;;;;;;;;;;;19.40;75.90;;;;;;4971601;28;19960;-76
2023/05/28 05:24:41;;;;;;;;;;;19.40;74.70;;;;;;4971383;28;19956;-77
2023/05/28 05:27:07;;;;;;;;;;;19.40;72.80;;;;;;4971347;28;20367;-75
2023/05/28 05:29:32;;;;;;;;;;;19.40;71.80;;;;;;4971589;28;19994;-74
2023/05/28 05:31:58;;;;;;;;;;;19.30;71.70;;;;;;4971381;28;19910;-75
2023/05/28 05:34:23;;;;;;;;;;;19.30;70.90;;;;;;4971437;28;20313;-74
2023/05/28 05:36:49;;;;;;;;;;;19.50;70.50;;;;;;4971677;28;19918;-75
2023/05/28 05:39:14;;;;;;;;;;;19.70;69.80;;;;;;4969948;28;20294;-75
2023/05/28 05:41:40;;;;;;;;;;;19.80;68.90;;;;;;4971546;28;19917;-75
2023/05/28 05:44:06;;;;;;;;;;;20.00;69.70;;;;;;4971504;28;19961;-75
2023/05/28 05:46:31;;;;;;;;;;;20.30;69.40;;;;;;4970192;28;19925;-76
2023/05/28 05:48:57;;;;;;;;;;;20.60;67.10;;;;;;4971141;28;20306;-75
2023/05/28 05:51:22;;;;;;;;;;;21.00;67.70;;;;;;4971096;28;20412;-75
2023/05/28 05:53:48;;;;;;;;;;;21.70;66.40;;;;;;4971091;28;20000;-76
2023/05/28 05:56:13;;;;;;;;;;;22.60;62.40;;;;;;4971118;28;19910;-75
2023/05/28 05:58:39;;;;;;;;;;;23.70;59.00;;;;;;4970913;28;20000;-76
2023/05/28 06:01:05;;;;;;;;;;;24.60;55.40;;;;;;4970870;28;20189;-75
2023/05/28 06:03:30;;;;;;;;;;;25.10;54.10;;;;;;4969479;28;19918;-75
2023/05/28 06:05:56;;;;;;;;;;;26.00;50.70;;;;;;4971367;28;20267;-76
2023/05/28 06:08:22;;;;;;;;;;;26.90;48.00;;;;;;4970998;28;19906;-78
2023/05/28 06:10:51;;;;;;;;;;;27.10;47.30;;;;;;4970872;28;19910;-76
2023/05/28 06:13:17;;;;;;;;;;;27.60;45.80;;;;;;4971081;28;19910;-77
2023/05/28 06:15:43;;;;;;;;;;;28.00;44.90;;;;;;4971008;28;19910;-77
2023/05/28 06:18:08;;;;;;;;;;;28.50;43.60;;;;;;4970951;28;19910;-75
2023/05/28 06:20:34;;;;;;;;;;;28.80;42.50;;;;;;4971160;28;20290;-76
2023/05/28 06:23:00;;;;;;;;;;;29.30;42.20;;;;;;4970651;28;20346;-76
2023/05/28 06:25:26;;;;;;;;;;;29.60;42.00;;;;;;4972794;28;19906;-77
2023/05/28 06:27:52;;;;;;;;;;;29.80;40.10;;;;;;4974685;28;19906;-75
2023/05/28 06:30:18;;;;;;;;;;;29.90;40.20;;;;;;4974848;28;20271;-76
2023/05/28 06:32:43;;;;;;;;;;;30.10;40.00;;;;;;4974567;28;19956;-76
2023/05/28 06:35:09;;;;;;;;;;;30.60;39.30;;;;;;4973367;28;19956;-77
2023/05/28 06:37:35;;;;;;;;;;;30.90;39.20;;;;;;4989454;28;19913;-76
2023/05/28 06:40:00;;;;;;;;;;;30.80;38.60;;;;;;4974445;28;20000;-75
2023/05/28 06:42:26;;;;;;;;;;;30.50;38.20;;;;;;4974288;28;20355;-76
2023/05/28 06:44:51;;;;;;;;;;;30.30;38.40;;;;;;4974103;28;20437;-77
2023/05/28 06:47:17;;;;;;;;;;;30.70;38.40;;;;;;4973050;28;19913;-77
2023/05/28 06:49:42;;;;;;;;;;;30.20;36.80;;;;;;4974465;28;19910;-76
2023/05/28 06:52:08;;;;;;;;;;;30.70;37.80;;;;;;4974163;28;19914;-76
2023/05/28 06:54:33;;;;;;;;;;;30.30;37.80;;;;;;4988968;28;19910;-76
2023/05/28 06:56:59;;;;;;;;;;;30.20;38.70;;;;;;4972712;28;19997;-75
2023/05/28 06:59:24;;;;;;;;;;;30.60;37.80;;;;;;4973958;28;19917;-76
2023/05/28 07:01:50;;;;;;;;;;;31.20;37.20;;;;;;4973971;28;20058;-76
2023/05/28 07:04:15;;;;;;;;;;;31.30;38.20;;;;;;4972665;28;20405;-76
2023/05/28 07:06:41;;;;;;;;;;;31.20;35.40;;;;;;4973887;28;20360;-76
2023/05/28 07:09:06;;;;;;;;;;;31.40;35.50;;;;;;4973660;28;19910;-75
2023/05/28 07:11:32;;;;;;;;;;;31.30;34.30;;;;;;4988641;28;19913;-77
2023/05/28 07:13:57;;;;;;;;;;;31.20;36.30;;;;;;4974153;28;19910;-76
2023/05/28 07:16:23;;;;;;;;;;;31.50;34.50;;;;;;4973780;28;20268;-77
2023/05/28 07:18:48;;;;;;;;;;;31.00;34.60;;;;;;4973739;28;20314;-77
2023/05/28 07:21:14;;;;;;;;;;;30.90;37.30;;;;;;4973524;28;20389;-76
2023/05/28 07:23:39;;;;;;;;;;;30.50;35.60;;;;;;4973698;28;19946;-76
2023/05/28 07:26:05;;;;;;;;;;;30.40;37.20;;;;;;4973635;28;19950;-76
2023/05/28 07:28:31;;;;;;;;;;;30.40;36.60;;;;;;4973534;28;20065;-77
2023/05/28 07:30:56;;;;;;;;;;;30.20;37.30;;;;;;4973436;28;19909;-76
2023/05/28 07:33:22;;;;;;;;;;;30.10;37.00;;;;;;4973532;28;19917;-76
2023/05/28 07:35:47;;;;;;;;;;;30.20;37.10;;;;;;4973386;28;19910;-77
2023/05/28 07:38:14;;;;;;;;;;;30.50;37.00;;;;;;4972941;28;19917;-76
2023/05/28 07:40:40;;;;;;;;;;;30.30;36.10;;;;;;4973417;28;20017;-77
2023/05/28 07:43:05;;;;;;;;;;;30.50;36.90;;;;;;4973167;28;19957;-77
2023/05/28 07:45:31;;;;;;;;;;;30.30;37.20;;;;;;4973705;28;20340;-76
2023/05/28 07:47:56;;;;;;;;;;;30.50;36.50;;;;;;4973310;28;19909;-77
2023/05/28 07:50:22;;;;;;;;;;;30.40;37.40;;;;;;4973243;28;20374;-76
2023/05/28 07:52:47;;;;;;;;;;;30.40;36.50;;;;;;4973245;28;19918;-76
2023/05/28 07:55:13;;;;;;;;;;;30.30;38.40;;;;;;4973030;28;19910;-75
2023/05/28 07:57:38;;;;;;;;;;;30.30;38.10;;;;;;4973177;28;20001;-76
2023/05/28 08:00:15;;;;;;;;;;;30.60;36.30;;;;;;4972997;28;20004;-76
2023/05/28 08:02:44;;;;;;;;;;;30.40;36.90;;;;;;4972763;28;19922;-76
2023/05/28 08:05:10;;;;;;;;;;;30.50;36.60;;;;;;4972768;28;19937;-76
2023/05/28 08:07:35;;;;;;;;;;;30.10;36.50;;;;;;4972964;28;19952;-75
2023/05/28 08:10:01;;;;;;;;;;;30.00;37.60;;;;;;4972815;28;19906;-76
2023/05/28 08:12:26;;;;;;;;;;;30.20;37.00;;;;;;4972707;28;19906;-76
2023/05/28 08:14:52;;;;;;;;;;;30.30;38.30;;;;;;4971385;28;19906;-76
2023/05/28 08:17:20;;;;;;;;;;;30.20;38.40;;;;;;4971347;28;19906;-76
2023/05/28 08:19:46;;;;;;;;;;;30.40;38.50;;;;;;4972440;28;20004;-75
2023/05/28 08:22:11;;;;;;;;;;;30.60;37.80;;;;;;4972502;28;20000;-76
2023/05/28 08:24:37;;;;;;;;;;;30.80;37.00;;;;;;4972702;28;20017;-76
2023/05/28 08:27:02;;;;;;;;;;;30.60;36.90;;;;;;4972489;28;19910;-75
2023/05/28 08:29:28;;;;;;;;;;;30.90;37.70;;;;;;4972586;28;19916;-76
2023/05/28 08:31:53;;;;;;;;;;;30.80;38.30;;;;;;4972492;28;19910;-76
2023/05/28 08:34:19;;;;;;;;;;;30.50;37.40;;;;;;4972498;28;20005;-77
2023/05/28 08:36:45;;;;;;;;;;;30.80;37.90;;;;;;4972488;28;20386;-76
2023/05/28 08:39:11;;;;;;;;;;;30.80;38.70;;;;;;4972277;28;19916;-75
2023/05/28 08:41:37;;;;;;;;;;;30.90;37.30;;;;;;4972373;28;19924;-75
2023/05/28 08:44:02;;;;;;;;;;;30.90;37.20;;;;;;4972238;28;19965;-78
2023/05/28 08:46:30;;;;;;;;;;;30.80;38.70;;;;;;4972210;28;19913;-76
2023/05/28 08:48:56;;;;;;;;;;;31.10;36.50;;;;;;4971683;28;19906;-77
2023/05/28 08:51:24;;;;;;;;;;;31.00;38.10;;;;;;4972300;28;19917;-76
2023/05/28 08:53:50;;;;;;;;;;;31.30;36.80;;;;;;4972636;28;20334;-76
2023/05/28 08:56:16;;;;;;;;;;;31.50;37.00;;;;;;4972147;28;19910;-76
2023/05/28 08:58:42;;;;;;;;;;;31.60;36.10;;;;;;4986767;28;19910;-75
2023/05/28 09:01:08;;;;;;;;;;;31.30;36.90;;;;;;4971566;28;19992;-76
2023/05/28 09:03:34;;;;;;;;;;;31.00;37.20;;;;;;4971663;28;20021;-76
2023/05/28 09:06:00;;;;;;;;;;;31.10;36.50;;;;;;4971817;28;19910;-75
2023/05/28 09:08:25;;;;;;;;;;;31.10;37.10;;;;;;4971805;28;19906;-76
2023/05/28 09:10:51;;;;;;;;;;;30.90;37.10;;;;;;4971664;28;20422;-76
2023/05/28 09:13:20;;;;;;;;;;;30.90;37.90;;;;;;4971858;28;19906;-76
2023/05/28 09:15:50;;;;;;;;;;;30.90;38.90;;;;;;4971627;28;20444;-75
2023/05/28 09:18:18;;;;;;;;;;;31.40;38.50;;;;;;4971726;28;19917;-76
2023/05/28 09:20:44;;;;;;;;;;;31.60;36.90;;;;;;4971565;28;19917;-75
2023/05/28 09:23:10;;;;;;;;;;;31.80;37.90;;;;;;4971112;28;19914;-76
2023/05/28 09:25:36;;;;;;;;;;;32.10;37.10;;;;;;4971517;28;19906;-75
2023/05/28 09:28:02;;;;;;;;;;;32.30;36.40;;;;;;4971490;28;20393;-75
2023/05/28 09:30:31;;;;;;;;;;;32.30;37.30;;;;;;4971361;28;20283;-76
2023/05/28 09:33:00;;;;;;;;;;;32.30;36.20;;;;;;4971170;28;19917;-76
2023/05/28 09:35:26;;;;;;;;;;;32.60;36.70;;;;;;4971537;28;19906;-76
2023/05/28 09:38:08;;;;;;;;;;;32.60;36.10;;;;;;4971389;28;19917;-75
2023/05/28 09:40:37;;;;;;;;;;;32.60;37.30;;;;;;4971229;28;19910;-75
2023/05/28 09:43:04;;;;;;;;;;;32.60;36.00;;;;;;4971029;28;19921;-76
2023/05/28 09:45:29;;;;;;;;;;;32.60;36.70;;;;;;4971294;28;20565;-76
2023/05/28 09:47:55;;;;;;;;;;;32.90;34.70;;;;;;4969786;28;19910;-75
2023/05/28 09:50:20;;;;;;;;;;;32.70;33.40;;;;;;4970175;28;19906;-75
2023/05/28 09:52:46;;;;;;;;;;;32.30;35.90;;;;;;4970884;28;19910;-77
2023/05/28 09:55:20;;;;;;;;;;;32.30;36.20;;;;;;4971241;28;19906;-76
2023/05/28 09:57:46;;;;;;;;;;;32.20;32.80;;;;;;4971115;28;20457;-75
2023/05/28 10:00:20;;;;;;;;;;;31.50;34.70;;;;;;4970684;28;19966;-75
2023/05/28 10:02:50;;;;;;;;;;;31.30;37.00;;;;;;4969411;28;19921;-75
2023/05/28 10:05:16;;;;;;;;;;;30.80;37.40;;;;;;4969409;28;19910;-74
2023/05/28 10:07:44;;;;;;;;;;;30.60;39.60;;;;;;4970856;28;19932;-74
2023/05/28 10:10:12;;;;;;;;;;;30.40;40.60;;;;;;4970829;28;19914;-75
2023/05/28 10:12:38;;;;;;;;;;;30.00;41.50;;;;;;4970808;28;19997;-75
2023/05/28 10:15:04;;;;;;;;;;;29.60;41.60;;;;;;4969704;28;19917;-74
2023/05/28 10:17:30;;;;;;;;;;;29.30;41.90;;;;;;4969611;28;19914;-74
2023/05/28 10:19:55;;;;;;;;;;;28.90;41.60;;;;;;4970934;28;20444;-74
2023/05/28 10:22:21;;;;;;;;;;;28.50;42.20;;;;;;4969192;28;19910;-75
2023/05/28 10:24:47;;;;;;;;;;;28.30;44.30;;;;;;4970836;28;19914;-75
2023/05/28 10:27:13;;;;;;;;;;;28.20;44.90;;;;;;4985360;28;19965;-75
2023/05/28 10:29:42;;;;;;;;;;;28.10;43.90;;;;;;4969452;28;19932;-74
2023/05/28 10:32:08;;;;;;;;;;;27.90;44.30;;;;;;4970553;28;19937;-76
2023/05/28 10:34:35;;;;;;;;;;;27.80;42.60;;;;;;4969342;28;19910;-75
2023/05/28 10:37:07;;;;;;;;;;;27.80;43.90;;;;;;4969267;28;19934;-75
2023/05/28 10:39:42;;;;;;;;;;;27.80;43.70;;;;;;4970452;28;20445;-74
2023/05/28 10:42:08;;;;;;;;;;;27.70;43.80;;;;;;4969315;28;19910;-76
2023/05/28 10:44:53;;;;;;;;;;;27.60;43.30;;;;;;4985405;28;19913;-74
2023/05/28 10:47:18;;;;;;;;;;;27.40;43.40;;;;;;4970454;28;19913;-75
2023/05/28 10:50:02;;;;;;;;;;;26.90;44.10;;;;;;4968917;28;19910;-75
2023/05/28 10:52:30;;;;;;;;;;;26.80;45.70;;;;;;4970509;28;19937;-75
2023/05/28 10:54:56;;;;;;;;;;;26.80;44.90;;;;;;4969097;28;19906;-75
2023/05/28 10:57:21;;;;;;;;;;;26.70;46.10;;;;;;4970332;28;19928;-75
2023/05/28 10:59:48;;;;;;;;;;;26.80;45.00;;;;;;4968969;28;19910;-74
2023/05/28 11:02:18;;;;;;;;;;;26.70;47.10;;;;;;4970095;28;19925;-74
2023/05/28 11:04:43;;;;;;;;;;;26.80;46.70;;;;;;4970381;28;19910;-75
2023/05/28 11:07:09;;;;;;;;;;;26.80;47.40;;;;;;4970145;28;19930;-75
2023/05/28 11:09:34;;;;;;;;;;;26.80;46.20;;;;;;4968910;28;19906;-75
2023/05/28 11:12:01;;;;;;;;;;;27.00;47.50;;;;;;4970431;28;19938;-74
2023/05/28 11:14:36;;;;;;;;;;;27.10;46.00;;;;;;4973873;28;19916;-74
2023/05/28 11:17:12;;;;;;;;;;;27.10;45.40;;;;;;4973680;28;19973;-75
2023/05/28 11:19:44;;;;;;;;;;;27.00;46.10;;;;;;4973749;28;20382;-75
2023/05/28 11:22:11;;;;;;;;;;;27.00;45.70;;;;;;4973668;28;19918;-75
2023/05/28 11:25:12;;;;;;;;;;;27.00;44.80;;;;;;4973579;28;20442;-75
2023/05/28 11:27:38;;;;;;;;;;;27.00;45.40;;;;;;4932629;29;19910;-74
2023/05/28 11:30:08;;;;;;;;;;;27.10;45.10;;;;;;4965126;28;19924;-75
2023/05/28 11:32:33;;;;;;;;;;;27.00;45.00;;;;;;4971922;28;19913;-75
2023/05/28 11:34:59;;;;;;;;;;;27.00;43.90;;;;;;4973366;28;20281;-72
2023/05/28 11:37:28;;;;;;;;;;;27.10;43.80;;;;;;4973525;28;19910;-75
2023/05/28 11:39:55;;;;;;;;;;;26.80;43.70;;;;;;4971985;28;19913;-75
2023/05/28 11:42:21;;;;;;;;;;;26.40;43.80;;;;;;4973106;28;19918;-74
2023/05/28 11:44:47;;;;;;;;;;;26.10;46.80;;;;;;4971906;28;20389;-79
2023/05/28 11:47:13;;;;;;;;;;;26.10;48.20;;;;;;4971886;28;19910;-74
2023/05/28 11:49:39;;;;;;;;;;;26.20;49.00;;;;;;4973292;28;19910;-73
2023/05/28 11:52:04;;;;;;;;;;;26.30;45.40;;;;;;4971733;28;19910;-74
2023/05/28 11:54:30;;;;;;;;;;;26.40;48.60;;;;;;4971804;28;20374;-74
2023/05/28 11:56:55;;;;;;;;;;;26.60;49.20;;;;;;4973050;28;19913;-74
2023/05/28 11:59:21;;;;;;;;;;;26.70;48.00;;;;;;4971898;28;19917;-75
2023/05/28 12:01:47;;;;;;;;;;;26.70;45.80;;;;;;4972103;28;19938;-75
2023/05/28 12:04:12;;;;;;;;;;;26.40;46.30;;;;;;4972929;28;19933;-75
2023/05/28 12:06:54;;;;;;;;;;;26.20;46.10;;;;;;4971337;28;19907;-74
2023/05/28 12:09:20;;;;;;;;;;;26.10;47.60;;;;;;4971349;28;19917;-75
2023/05/28 12:12:02;;;;;;;;;;;26.20;47.90;;;;;;4972616;28;19910;-74
2023/05/28 12:14:30;;;;;;;;;;;26.10;47.30;;;;;;4971336;28;20342;-74
2023/05/28 12:17:03;;;;;;;;;;;26.20;47.50;;;;;;4972721;28;19910;-74
2023/05/28 12:19:31;;;;;;;;;;;26.20;47.90;;;;;;4972884;28;19948;-74
2023/05/28 12:21:57;;;;;;;;;;;26.30;47.20;;;;;;4972616;28;19965;-73
2023/05/28 12:24:25;;;;;;;;;;;26.30;46.00;;;;;;4971267;28;19910;-75
2023/05/28 12:26:51;;;;;;;;;;;26.20;46.30;;;;;;4972677;28;20416;-74
2023/05/28 12:29:16;;;;;;;;;;;26.10;47.00;;;;;;4971069;28;20008;-74
2023/05/28 12:31:42;;;;;;;;;;;26.20;50.20;;;;;;4972473;28;19910;-73
2023/05/28 12:34:08;;;;;;;;;;;26.40;49.40;;;;;;4972552;28;20060;-73
2023/05/28 12:36:34;;;;;;;;;;;26.50;47.80;;;;;;4971140;28;19995;-75
2023/05/28 12:39:00;;;;;;;;;;;26.70;48.80;;;;;;4972635;28;19914;-75
2023/05/28 12:41:25;;;;;;;;;;;26.80;47.90;;;;;;4972232;28;19910;-74
2023/05/28 12:43:51;;;;;;;;;;;26.90;48.90;;;;;;4972222;28;19920;-75
2023/05/28 12:46:16;;;;;;;;;;;26.90;47.70;;;;;;4972539;28;19910;-74
2023/05/28 12:48:42;;;;;;;;;;;27.00;48.40;;;;;;4972149;28;19932;-72
2023/05/28 12:51:08;;;;;;;;;;;27.00;48.20;;;;;;4971886;28;19937;-74
2023/05/28 12:53:33;;;;;;;;;;;27.10;48.50;;;;;;4972039;28;19917;-73
2023/05/28 12:55:59;;;;;;;;;;;27.10;48.50;;;;;;4971004;28;19920;-73
2023/05/28 12:58:24;;;;;;;;;;;27.10;46.80;;;;;;4972350;28;19961;-76
2023/05/28 13:00:50;;;;;;;;;;;26.90;46.30;;;;;;4970597;28;20446;-75
2023/05/28 13:03:15;;;;;;;;;;;26.90;47.60;;;;;;4971450;28;19922;-75
2023/05/28 13:05:41;;;;;;;;;;;27.00;48.80;;;;;;4971737;28;19916;-76
2023/05/28 13:08:06;;;;;;;;;;;27.00;48.10;;;;;;4971767;28;19910;-75
2023/05/28 13:10:32;;;;;;;;;;;26.90;47.10;;;;;;4970417;28;20378;-76
2023/05/28 13:12:58;;;;;;;;;;;26.80;47.60;;;;;;4971483;28;19906;-76
2023/05/28 13:15:23;;;;;;;;;;;26.80;48.00;;;;;;4970513;28;20282;-76
2023/05/28 13:17:48;;;;;;;;;;;26.70;48.80;;;;;;4971799;28;20008;-76
2023/05/28 13:20:14;;;;;;;;;;;26.70;47.50;;;;;;4971538;28;20370;-75
2023/05/28 13:22:40;;;;;;;;;;;26.70;48.70;;;;;;4971621;28;20559;-76
2023/05/28 13:25:06;;;;;;;;;;;26.70;49.30;;;;;;4971602;28;20426;-75
2023/05/28 13:27:32;;;;;;;;;;;26.80;49.00;;;;;;4971432;28;19969;-74
2023/05/28 13:29:58;;;;;;;;;;;26.80;47.20;;;;;;4971512;28;20366;-77
2023/05/28 13:32:24;;;;;;;;;;;26.50;46.50;;;;;;4971464;28;19925;-75
2023/05/28 13:34:50;;;;;;;;;;;26.50;48.60;;;;;;4970888;28;19910;-75
2023/05/28 13:37:15;;;;;;;;;;;26.50;50.80;;;;;;4970311;28;19910;-76
2023/05/28 13:39:41;;;;;;;;;;;26.40;47.30;;;;;;4971544;28;19910;-76
2023/05/28 13:42:07;;;;;;;;;;;26.10;48.80;;;;;;4971370;28;19906;-76
2023/05/28 13:44:33;;;;;;;;;;;25.80;48.70;;;;;;4971137;28;20390;-76
2023/05/28 13:46:59;;;;;;;;;;;25.70;49.20;;;;;;4971213;28;20115;-75
2023/05/28 13:49:25;;;;;;;;;;;25.80;50.60;;;;;;4971371;28;19912;-76
2023/05/28 13:51:51;;;;;;;;;;;25.80;49.00;;;;;;4971354;28;20366;-76
2023/05/28 13:54:16;;;;;;;;;;;25.70;48.70;;;;;;4971140;28;19961;-76
2023/05/28 13:56:42;;;;;;;;;;;25.60;49.00;;;;;;4971225;28;19910;-75